createdAt,value
2023-04-26T00:02:18.632Z,98993.63
2023-04-26T00:04:47.367Z,98990.91
2023-04-26T00:07:15.894Z,98994.56
2023-04-26T00:09:44.429Z,98998.75
2023-04-26T00:12:12.002Z,98998.44
2023-04-26T00:14:38.779Z,99005.25
2023-04-26T00:17:05.466Z,98999.25
2023-04-26T00:19:32.268Z,99007.13
2023-04-26T00:21:59.009Z,99007.47
2023-04-26T00:24:25.929Z,99009.34
2023-04-26T00:26:56.043Z,99004.56
2023-04-26T00:29:22.693Z,99003.78
2023-04-26T00:31:49.563Z,99003.78
2023-04-26T00:34:16.624Z,99010.38
2023-04-26T00:36:43.307Z,99018.94
2023-04-26T00:39:10.426Z,99009.22
2023-04-26T00:41:37.298Z,99013.59
2023-04-26T00:44:04.116Z,99017.25
2023-04-26T00:46:31.253Z,99017.66
2023-04-26T00:48:57.927Z,99011.50
2023-04-26T00:51:24.801Z,99008.44
2023-04-26T00:53:51.443Z,99003.59
2023-04-26T00:56:19.083Z,99007.50
2023-04-26T00:58:46.317Z,99012.75
2023-04-26T01:01:13.555Z,99004.44
2023-04-26T01:03:40.447Z,99006.47
2023-04-26T01:06:07.429Z,98998.00
2023-04-26T01:08:34.318Z,99007.97
2023-04-26T01:11:01.163Z,99009.44
2023-04-26T01:13:28.447Z,99019.31
2023-04-26T01:15:56.388Z,99020.53
2023-04-26T01:18:23.060Z,99036.41
2023-04-26T01:20:49.687Z,99026.81
2023-04-26T01:23:17.096Z,99024.19
2023-04-26T01:25:43.745Z,99034.91
2023-04-26T01:28:10.454Z,99027.56
2023-04-26T01:30:37.069Z,99030.56
2023-04-26T01:33:03.928Z,99036.09
2023-04-26T01:35:30.589Z,99037.19
2023-04-26T01:37:57.168Z,99038.34
2023-04-26T01:40:23.826Z,99037.66
2023-04-26T01:42:50.463Z,99034.94
2023-04-26T01:45:17.600Z,99036.72
2023-04-26T01:47:44.236Z,99033.66
2023-04-26T01:50:11.494Z,99029.47
2023-04-26T01:52:38.073Z,99036.56
2023-04-26T01:55:05.153Z,99031.53
2023-04-26T01:57:31.895Z,99035.09
2023-04-26T01:59:59.454Z,99028.84
2023-04-26T02:02:26.426Z,99030.69
2023-04-26T02:04:53.193Z,99029.16
2023-04-26T02:07:20.177Z,99029.31
2023-04-26T02:09:46.799Z,99031.28
2023-04-26T02:12:13.481Z,99027.22
2023-04-26T02:14:40.166Z,99033.66
2023-04-26T02:17:06.904Z,99035.34
2023-04-26T02:19:33.544Z,99032.97
2023-04-26T02:22:00.400Z,99031.50
2023-04-26T02:24:27.050Z,99033.59
2023-04-26T02:26:54.690Z,99037.22
2023-04-26T02:29:32.641Z,99032.91
2023-04-26T02:32:07.707Z,99035.72
2023-04-26T02:34:34.598Z,99039.41
2023-04-26T02:37:01.816Z,99033.63
2023-04-26T02:39:28.428Z,99037.03
2023-04-26T02:41:55.163Z,99024.19
2023-04-26T02:44:21.756Z,99033.91
2023-04-26T02:46:48.430Z,99029.03
2023-04-26T02:49:15.014Z,99035.59
2023-04-26T02:51:41.667Z,99032.34
2023-04-26T02:54:08.386Z,99025.50
2023-04-26T02:56:35.072Z,99027.34
2023-04-26T02:59:01.775Z,99035.31
2023-04-26T03:01:28.520Z,99030.13
2023-04-26T03:03:55.186Z,99036.53
2023-04-26T03:06:21.816Z,99033.09
2023-04-26T03:08:48.436Z,99038.31
2023-04-26T03:11:15.194Z,99041.19
2023-04-26T03:13:41.935Z,99036.97
2023-04-26T03:16:08.563Z,99038.94
2023-04-26T03:18:35.919Z,99036.38
2023-04-26T03:21:02.582Z,99037.38
2023-04-26T03:23:29.438Z,99040.88
2023-04-26T03:25:56.117Z,99039.31
2023-04-26T03:28:22.746Z,99045.66
2023-04-26T03:30:51.923Z,99042.41
2023-04-26T03:33:18.564Z,99040.81
2023-04-26T03:35:45.319Z,99049.72
2023-04-26T03:38:11.948Z,99050.81
2023-04-26T03:40:38.610Z,99039.53
2023-04-26T03:43:05.398Z,99049.13
2023-04-26T03:45:31.996Z,99044.75
2023-04-26T03:47:58.680Z,99051.09
2023-04-26T03:50:25.510Z,99060.81
2023-04-26T03:52:52.186Z,99058.25
2023-04-26T03:55:18.843Z,99055.00
2023-04-26T03:57:45.598Z,99059.47
2023-04-26T04:00:14.339Z,99058.56
2023-04-26T04:02:42.084Z,99058.56
2023-04-26T04:05:09.536Z,99053.28
2023-04-26T04:07:36.311Z,99056.81
2023-04-26T04:10:03.061Z,99051.72
2023-04-26T04:12:29.677Z,99052.72
2023-04-26T04:14:56.365Z,99057.91
2023-04-26T04:17:23.007Z,99064.03
2023-04-26T04:19:49.654Z,99061.53
2023-04-26T04:22:16.243Z,99059.06
2023-04-26T04:24:44.264Z,99050.47
2023-04-26T04:27:11.667Z,99053.16
2023-04-26T04:29:38.531Z,99060.25
2023-04-26T04:32:05.502Z,99056.72
2023-04-26T04:34:37.366Z,99056.72
2023-04-26T04:37:04.434Z,99059.19
2023-04-26T04:39:31.358Z,99064.41
2023-04-26T04:41:58.417Z,99063.63
2023-04-26T04:44:27.108Z,99064.41
2023-04-26T04:46:53.937Z,99070.56
2023-04-26T04:49:20.966Z,99067.00
2023-04-26T04:51:48.047Z,99070.41
2023-04-26T04:54:16.974Z,99070.16
2023-04-26T04:56:44.324Z,99073.16
2023-04-26T04:59:11.797Z,99073.75
2023-04-26T05:01:38.800Z,99079.53
2023-04-26T05:04:07.012Z,99071.22
2023-04-26T05:06:33.927Z,99082.09
2023-04-26T05:09:01.697Z,99080.22
2023-04-26T05:11:28.547Z,99085.34
2023-04-26T05:13:55.614Z,99087.75
2023-04-26T05:16:22.687Z,99089.38
2023-04-26T05:18:49.436Z,99074.47
2023-04-26T05:21:16.671Z,99086.41
2023-04-26T05:23:43.350Z,99087.91
2023-04-26T05:26:16.033Z,99098.09
2023-04-26T05:28:43.122Z,99092.81
2023-04-26T05:31:11.595Z,99090.94
2023-04-26T05:33:38.554Z,99089.84
2023-04-26T05:36:05.868Z,99094.88
2023-04-26T05:38:32.530Z,99100.66
2023-04-26T05:40:59.209Z,99105.50
2023-04-26T05:43:26.450Z,99109.53
2023-04-26T05:45:54.372Z,99118.81
2023-04-26T05:48:22.349Z,99117.50
2023-04-26T05:50:50.070Z,99112.84
2023-04-26T05:53:17.288Z,99115.97
2023-04-26T05:55:44.176Z,99117.41
2023-04-26T05:58:11.437Z,99115.25
2023-04-26T06:00:41.686Z,99117.50
2023-04-26T06:03:08.800Z,99114.38
2023-04-26T06:05:38.404Z,99115.66
2023-04-26T06:08:05.455Z,99122.13
2023-04-26T06:10:32.098Z,99124.31
2023-04-26T06:12:58.744Z,99122.00
2023-04-26T06:15:25.552Z,99115.41
2023-04-26T06:17:52.210Z,99117.72
2023-04-26T06:20:18.876Z,99116.34
2023-04-26T06:22:45.708Z,99113.63
2023-04-26T06:25:12.598Z,99117.63
2023-04-26T06:27:39.309Z,99119.84
2023-04-26T06:30:07.864Z,99116.13
2023-04-26T06:32:34.734Z,99121.25
2023-04-26T06:35:01.805Z,99120.34
2023-04-26T06:37:28.442Z,99122.41
2023-04-26T06:39:55.219Z,99130.97
2023-04-26T06:42:22.455Z,99117.91
2023-04-26T06:44:49.142Z,99129.00
2023-04-26T06:47:15.694Z,99123.06
2023-04-26T06:49:42.466Z,99124.28
2023-04-26T06:52:09.656Z,99127.53
2023-04-26T06:54:45.993Z,99126.66
2023-04-26T06:57:20.641Z,99124.50
2023-04-26T06:59:47.327Z,99132.69
2023-04-26T07:02:15.772Z,99121.91
2023-04-26T07:04:43.057Z,99122.06
2023-04-26T07:07:11.788Z,99123.13
2023-04-26T07:09:39.728Z,99127.34
2023-04-26T07:12:06.869Z,99122.63
2023-04-26T07:14:37.147Z,99126.03
2023-04-26T07:17:05.262Z,99136.22
2023-04-26T07:19:32.213Z,99125.88
2023-04-26T07:21:58.915Z,99126.28
2023-04-26T07:24:25.918Z,99122.13
2023-04-26T07:26:52.598Z,99126.09
2023-04-26T07:29:19.487Z,99125.94
2023-04-26T07:31:46.451Z,99126.25
2023-04-26T07:34:13.262Z,99123.44
2023-04-26T07:36:39.901Z,99123.22
2023-04-26T07:39:06.905Z,99125.53
2023-04-26T07:41:33.594Z,99126.16
2023-04-26T07:44:00.253Z,99121.09
2023-04-26T07:46:27.182Z,99124.59
2023-04-26T07:48:53.984Z,99129.63
2023-04-26T07:51:21.079Z,99133.75
2023-04-26T07:53:48.216Z,99128.50
2023-04-26T07:56:15.518Z,99123.84
2023-04-26T07:58:42.194Z,99124.88
2023-04-26T08:01:09.780Z,99124.88
2023-04-26T08:03:36.521Z,99128.69
2023-04-26T08:06:03.922Z,99135.44
2023-04-26T08:08:32.262Z,99129.44
2023-04-26T08:10:59.051Z,99127.53
2023-04-26T08:13:27.901Z,99132.59
2023-04-26T08:15:56.143Z,99137.06
2023-04-26T08:18:22.742Z,99139.03
2023-04-26T08:20:49.386Z,99127.84
2023-04-26T08:23:16.138Z,99120.22
2023-04-26T08:25:42.781Z,99117.47
2023-04-26T08:28:09.338Z,99115.22
2023-04-26T08:30:36.264Z,99108.06
2023-04-26T08:33:03.289Z,99117.09
2023-04-26T08:35:30.005Z,99113.28
2023-04-26T08:37:56.941Z,99122.38
2023-04-26T08:40:25.528Z,99114.34
2023-04-26T08:42:53.946Z,99118.47
2023-04-26T08:45:21.726Z,99124.59
2023-04-26T08:47:56.324Z,99117.31
2023-04-26T08:50:24.103Z,99119.94
2023-04-26T08:52:52.361Z,99112.44
2023-04-26T08:55:20.386Z,99107.59
2023-04-26T08:57:48.675Z,99105.38
2023-04-26T09:00:17.135Z,99096.09
2023-04-26T09:02:52.971Z,99097.47
2023-04-26T09:05:24.391Z,99103.78
2023-04-26T09:07:55.547Z,99095.41
2023-04-26T09:10:22.445Z,99101.88
2023-04-26T09:12:56.630Z,99113.50
2023-04-26T09:15:25.160Z,99110.56
2023-04-26T09:17:52.546Z,99115.31
2023-04-26T09:20:30.705Z,99117.72
2023-04-26T09:23:03.638Z,99115.69
2023-04-26T09:25:31.862Z,99102.06
2023-04-26T09:27:59.942Z,99117.09
2023-04-26T09:30:28.294Z,99101.56
2023-04-26T09:33:06.725Z,99105.56
2023-04-26T09:35:37.470Z,99109.69
2023-04-26T09:38:12.583Z,99117.63
2023-04-26T09:40:46.210Z,99119.41
2023-04-26T09:43:21.146Z,99107.78
2023-04-26T09:45:57.002Z,99111.16
2023-04-26T09:48:30.869Z,99108.03
2023-04-26T09:51:03.683Z,99107.50
2023-04-26T09:53:37.277Z,99113.91
2023-04-26T09:56:13.663Z,99113.09
2023-04-26T09:59:01.359Z,99119.59
2023-04-26T10:01:30.059Z,99114.75
2023-04-26T10:03:58.050Z,99109.28
2023-04-26T10:06:25.306Z,99118.34
2023-04-26T10:11:18.971Z,99121.53
2023-04-26T10:13:45.730Z,99116.22
2023-04-26T10:16:12.497Z,99112.28
2023-04-26T10:18:39.447Z,99115.53
2023-04-26T10:21:19.057Z,99105.47
2023-04-26T10:23:47.296Z,99106.38
2023-04-26T10:26:52.968Z,99101.97
2023-04-26T10:29:24.329Z,99100.91
2023-04-26T10:32:09.766Z,99102.16
2023-04-26T10:34:37.823Z,99103.19
2023-04-26T10:37:14.228Z,99109.28
2023-04-26T10:39:45.918Z,99108.88
2023-04-26T10:42:26.798Z,99107.47
2023-04-26T10:45:00.209Z,99104.00
2023-04-26T10:47:36.458Z,99108.09
2023-04-26T10:50:10.669Z,99100.91
2023-04-26T10:52:58.621Z,99102.22
2023-04-26T10:55:57.752Z,99100.34
2023-04-26T10:58:28.951Z,99101.75
2023-04-26T11:01:04.349Z,99100.91
2023-04-26T11:03:31.532Z,99100.00
2023-04-26T11:05:58.873Z,99090.84
2023-04-26T11:08:26.944Z,99089.63
2023-04-26T11:11:02.638Z,99081.94
2023-04-26T11:13:47.976Z,99083.47
2023-04-26T11:16:16.416Z,99085.19
2023-04-26T11:18:47.980Z,99088.94
2023-04-26T11:21:18.209Z,99076.56
2023-04-26T11:23:53.899Z,99076.47
2023-04-26T11:26:20.543Z,99073.44
2023-04-26T11:28:49.400Z,99072.81
2023-04-26T11:31:19.067Z,99067.06
2023-04-26T11:33:46.807Z,99066.59
2023-04-26T11:36:15.240Z,99068.81
2023-04-26T11:38:42.005Z,99069.00
2023-04-26T11:41:08.747Z,99068.03
2023-04-26T11:43:36.834Z,99063.47
2023-04-26T11:46:05.198Z,99064.16
2023-04-26T11:48:34.416Z,99070.63
2023-04-26T11:51:03.939Z,99070.69
2023-04-26T11:53:41.015Z,99058.66
2023-04-26T11:56:17.302Z,99059.03
2023-04-26T11:58:47.785Z,99058.81
2023-04-26T12:01:24.305Z,99068.13
2023-04-26T12:04:00.852Z,99074.50
2023-04-26T12:06:33.913Z,99061.81
2023-04-26T12:09:05.510Z,99070.06
2023-04-26T12:11:32.270Z,99069.19
2023-04-26T12:13:59.682Z,99068.84
2023-04-26T12:16:27.241Z,99066.69
2023-04-26T12:18:56.825Z,99074.78
2023-04-26T12:21:30.392Z,99076.47
2023-04-26T12:23:57.509Z,99075.13
2023-04-26T12:26:44.862Z,99063.69
2023-04-26T12:29:11.702Z,99059.13
2023-04-26T12:31:38.537Z,99063.22
2023-04-26T12:34:05.423Z,99067.09
2023-04-26T12:36:32.043Z,99066.00
2023-04-26T12:38:58.688Z,99062.19
2023-04-26T12:41:25.336Z,99065.75
2023-04-26T12:43:51.947Z,99063.00
2023-04-26T12:46:18.612Z,99061.91
2023-04-26T12:48:45.328Z,99066.25
2023-04-26T12:51:11.926Z,99067.78
2023-04-26T12:53:38.476Z,99070.28
2023-04-26T12:56:05.531Z,99065.91
2023-04-26T12:58:32.298Z,99065.19
2023-04-26T13:00:59.014Z,99062.41
2023-04-26T13:03:25.759Z,99070.50
2023-04-26T13:05:52.692Z,99065.88
2023-04-26T13:08:19.433Z,99068.28
2023-04-26T13:10:46.121Z,99062.38
2023-04-26T13:13:13.135Z,99058.94
2023-04-26T13:15:40.016Z,99064.28
2023-04-26T13:18:06.718Z,99060.56
2023-04-26T13:20:33.388Z,99064.28
2023-04-26T13:23:00.034Z,99061.69
2023-04-26T13:25:27.127Z,99068.72
2023-04-26T13:27:55.500Z,99065.81
2023-04-26T13:30:22.144Z,99061.69
2023-04-26T13:32:49.601Z,99061.25
2023-04-26T13:35:16.299Z,99064.41
2023-04-26T13:37:42.904Z,99070.19
2023-04-26T13:40:11.347Z,99065.38
2023-04-26T13:42:38.753Z,99065.72
2023-04-26T13:45:16.992Z,99066.72
2023-04-26T13:47:44.721Z,99069.91
2023-04-26T13:50:11.328Z,99062.91
2023-04-26T13:52:38.035Z,99067.25
2023-04-26T13:55:04.948Z,99066.25
2023-04-26T13:57:31.915Z,99067.19
2023-04-26T13:59:58.493Z,99071.16
2023-04-26T14:02:25.288Z,99060.03
2023-04-26T14:04:52.170Z,99055.78
2023-04-26T14:07:18.943Z,99047.84
2023-04-26T14:09:45.648Z,99048.72
2023-04-26T14:12:12.290Z,99059.28
2023-04-26T14:14:38.924Z,99055.72
2023-04-26T14:17:05.639Z,99063.84
2023-04-26T14:19:32.243Z,99065.44
2023-04-26T14:21:58.917Z,99066.03
2023-04-26T14:24:25.542Z,99074.00
2023-04-26T14:26:52.206Z,99075.50
2023-04-26T14:29:18.831Z,99078.22
2023-04-26T14:31:46.065Z,99082.38
2023-04-26T14:34:13.427Z,99069.22
2023-04-26T14:36:40.132Z,99072.28
2023-04-26T14:39:07.463Z,99068.84
2023-04-26T14:41:35.368Z,99068.91
2023-04-26T14:44:01.974Z,99072.38
2023-04-26T14:46:28.756Z,99065.03
2023-04-26T14:48:55.837Z,99068.44
2023-04-26T14:51:22.471Z,99073.34
2023-04-26T14:53:49.054Z,99076.06
2023-04-26T14:56:15.683Z,99079.00
2023-04-26T14:58:42.322Z,99076.34
2023-04-26T15:01:09.371Z,99072.03
2023-04-26T15:03:36.183Z,99074.47
2023-04-26T15:06:03.095Z,99071.22
2023-04-26T15:08:30.172Z,99069.06
2023-04-26T15:10:56.769Z,99068.97
2023-04-26T15:13:23.447Z,99069.00
2023-04-26T15:15:50.049Z,99067.78
2023-04-26T15:18:16.811Z,99066.00
2023-04-26T15:20:43.697Z,99062.47
2023-04-26T15:23:10.783Z,99067.03
2023-04-26T15:25:37.478Z,99057.16
2023-04-26T15:28:04.592Z,99059.50
2023-04-26T15:30:31.409Z,99052.41
2023-04-26T15:32:58.130Z,99052.00
2023-04-26T15:35:25.169Z,99051.59
2023-04-26T15:37:53.924Z,99055.66
2023-04-26T15:40:21.716Z,99052.16
2023-04-26T15:42:49.276Z,99054.19
2023-04-26T15:45:15.975Z,99049.13
2023-04-26T15:47:42.723Z,99055.41
2023-04-26T15:50:09.828Z,99047.56
2023-04-26T15:52:39.288Z,99047.09
2023-04-26T15:55:07.335Z,99052.28
2023-04-26T15:57:34.817Z,99060.63
2023-04-26T16:00:02.106Z,99058.13
2023-04-26T16:02:28.989Z,99056.81
2023-04-26T16:04:56.336Z,99055.97
2023-04-26T16:07:23.645Z,99059.16
2023-04-26T16:09:50.438Z,99060.63
2023-04-26T16:12:17.133Z,99053.00
2023-04-26T16:14:43.744Z,99058.59
2023-04-26T16:17:10.350Z,99053.84
2023-04-26T16:19:37.414Z,99055.19
2023-04-26T16:22:04.304Z,99049.19
2023-04-26T16:24:31.145Z,99058.09
2023-04-26T16:26:58.036Z,99056.91
2023-04-26T16:29:25.331Z,99047.47
2023-04-26T16:31:52.913Z,99061.13
2023-04-26T16:34:20.032Z,99052.00
2023-04-26T16:36:46.827Z,99054.00
2023-04-26T16:39:15.749Z,99052.81
2023-04-26T16:41:42.612Z,99058.63
2023-04-26T16:44:09.249Z,99051.16
2023-04-26T16:46:35.970Z,99054.91
2023-04-26T16:49:04.419Z,99058.88
2023-04-26T16:51:32.039Z,99060.81
2023-04-26T16:53:58.718Z,99068.28
2023-04-26T16:56:25.379Z,99057.72
2023-04-26T16:58:52.510Z,99063.97
2023-04-26T17:01:19.193Z,99059.13
2023-04-26T17:03:46.683Z,99058.19
2023-04-26T17:06:13.437Z,99066.72
2023-04-26T17:08:40.187Z,99067.56
2023-04-26T17:11:07.876Z,99068.28
2023-04-26T17:13:34.592Z,99067.19
2023-04-26T17:16:01.732Z,99073.34
2023-04-26T17:18:28.470Z,99070.22
2023-04-26T17:20:56.386Z,99073.44
2023-04-26T17:23:23.294Z,99077.16
2023-04-26T17:25:50.535Z,99073.53
2023-04-26T17:28:17.298Z,99062.97
2023-04-26T17:30:44.105Z,99077.09
2023-04-26T17:33:10.927Z,99076.09
2023-04-26T17:35:37.638Z,99084.78
2023-04-26T17:38:04.278Z,99076.91
2023-04-26T17:40:31.011Z,99078.47
2023-04-26T17:42:57.629Z,99079.91
2023-04-26T17:45:24.488Z,99077.94
2023-04-26T17:47:51.398Z,99091.50
2023-04-26T17:50:18.380Z,99088.00
2023-04-26T17:52:45.097Z,99090.75
2023-04-26T17:55:11.773Z,99081.25
2023-04-26T17:57:38.516Z,99092.13
2023-04-26T18:00:09.936Z,99091.63
2023-04-26T18:02:37.487Z,99092.19
2023-04-26T18:05:06.073Z,99087.16
2023-04-26T18:07:32.735Z,99097.66
2023-04-26T18:09:59.367Z,99096.06
2023-04-26T18:12:26.104Z,99097.13
2023-04-26T18:14:52.807Z,99093.34
2023-04-26T18:17:19.698Z,99098.00
2023-04-26T18:19:46.496Z,99106.38
2023-04-26T18:22:13.098Z,99103.44
2023-04-26T18:24:39.708Z,99101.00
2023-04-26T18:27:06.620Z,99105.53
2023-04-26T18:29:33.336Z,99109.78
2023-04-26T18:32:00.012Z,99112.63
2023-04-26T18:34:26.988Z,99111.41
2023-04-26T18:36:53.680Z,99110.34
2023-04-26T18:39:20.359Z,99118.78
2023-04-26T18:41:47.030Z,99117.31
2023-04-26T18:44:14.437Z,99113.41
2023-04-26T18:46:42.878Z,99110.34
2023-04-26T18:49:10.154Z,99120.03
2023-04-26T18:51:36.900Z,99119.41
2023-04-26T18:54:03.825Z,99124.69
2023-04-26T18:56:31.595Z,99117.94
2023-04-26T18:58:58.569Z,99121.72
2023-04-26T19:01:25.352Z,99129.50
2023-04-26T19:03:52.158Z,99131.31
2023-04-26T19:06:18.989Z,99131.41
2023-04-26T19:08:46.079Z,99135.94
2023-04-26T19:11:13.622Z,99130.25
2023-04-26T19:13:41.449Z,99143.69
2023-04-26T19:16:15.241Z,99145.81
2023-04-26T19:18:42.004Z,99142.94
2023-04-26T19:21:09.378Z,99153.03
2023-04-26T19:23:36.950Z,99155.22
2023-04-26T19:26:08.205Z,99160.97
2023-04-26T19:28:35.995Z,99161.16
2023-04-26T19:31:02.717Z,99159.38
2023-04-26T19:33:30.015Z,99169.75
2023-04-26T19:35:56.810Z,99166.72
2023-04-26T19:38:24.410Z,99167.19
2023-04-26T19:40:51.848Z,99172.44
2023-04-26T19:43:18.728Z,99166.44
2023-04-26T19:45:46.438Z,99175.16
2023-04-26T19:48:13.389Z,99166.94
2023-04-26T19:50:43.953Z,99169.34
2023-04-26T19:53:13.207Z,99169.16
2023-04-26T19:55:41.324Z,99167.00
2023-04-26T19:58:08.829Z,99170.09
2023-04-26T20:00:36.180Z,99170.47
2023-04-26T20:03:03.163Z,99180.41
2023-04-26T20:05:30.091Z,99172.72
2023-04-26T20:07:57.554Z,99176.34
2023-04-26T20:10:24.291Z,99177.56
2023-04-26T20:12:51.122Z,99178.00
2023-04-26T20:15:18.128Z,99188.81
2023-04-26T20:17:44.853Z,99190.03
2023-04-26T20:20:12.724Z,99186.53
2023-04-26T20:22:40.291Z,99188.59
2023-04-26T20:25:07.360Z,99176.47
2023-04-26T20:27:34.371Z,99180.88
2023-04-26T20:30:01.134Z,99188.88
2023-04-26T20:32:27.984Z,99184.63
2023-04-26T20:34:54.657Z,99184.72
2023-04-26T20:37:22.070Z,99189.03
2023-04-26T20:39:49.086Z,99184.63
2023-04-26T20:42:16.207Z,99182.94
2023-04-26T20:44:43.201Z,99176.94
2023-04-26T20:47:09.899Z,99181.44
2023-04-26T20:49:36.717Z,99178.88
2023-04-26T20:52:03.546Z,99184.97
2023-04-26T20:54:30.431Z,99183.28
2023-04-26T20:56:57.259Z,99172.97
2023-04-26T20:59:25.179Z,99165.09
2023-04-26T21:01:53.735Z,99176.53
2023-04-26T21:04:21.023Z,99182.72
2023-04-26T21:06:47.982Z,99183.63
2023-04-26T21:09:14.685Z,99181.09
2023-04-26T21:11:41.559Z,99187.97
2023-04-26T21:14:09.346Z,99190.59
2023-04-26T21:16:36.205Z,99189.75
2023-04-26T21:19:03.634Z,99186.34
2023-04-26T21:21:30.826Z,99193.91
2023-04-26T21:23:57.501Z,99195.53
2023-04-26T21:26:24.415Z,99191.22
2023-04-26T21:28:51.042Z,99192.22
2023-04-26T21:31:17.878Z,99182.66
2023-04-26T21:33:44.532Z,99185.19
2023-04-26T21:36:11.401Z,99183.41
2023-04-26T21:38:38.047Z,99192.22
2023-04-26T21:41:04.865Z,99193.34
2023-04-26T21:43:31.589Z,99198.75
2023-04-26T21:45:58.574Z,99189.28
2023-04-26T21:48:26.509Z,99198.94
2023-04-26T21:50:53.638Z,99197.25
2023-04-26T21:53:20.353Z,99195.53
2023-04-26T21:55:52.285Z,99204.34
2023-04-26T21:58:19.791Z,99205.28
2023-04-26T22:00:46.871Z,99208.09
2023-04-26T22:03:14.318Z,99206.38
2023-04-26T22:05:41.330Z,99201.31
2023-04-26T22:08:07.948Z,99197.94
2023-04-26T22:10:35.337Z,99202.31
2023-04-26T22:13:01.915Z,99199.78
2023-04-26T22:15:28.924Z,99199.19
2023-04-26T22:17:55.665Z,99192.44
2023-04-26T22:20:22.713Z,99190.81
2023-04-26T22:22:49.380Z,99197.84
2023-04-26T22:25:16.236Z,99195.22
2023-04-26T22:27:42.856Z,99197.19
2023-04-26T22:30:23.923Z,99196.41
2023-04-26T22:32:52.837Z,99207.16
2023-04-26T22:35:27.742Z,99203.84
2023-04-26T22:37:55.092Z,99206.72
2023-04-26T22:40:21.760Z,99210.59
2023-04-26T22:42:48.452Z,99215.84
2023-04-26T22:45:15.194Z,99210.78
2023-04-26T22:47:42.140Z,99217.34
2023-04-26T22:50:09.178Z,99212.78
2023-04-26T22:52:36.350Z,99206.63
2023-04-26T22:55:03.149Z,99209.56
2023-04-26T22:57:31.070Z,99213.13
2023-04-26T22:59:57.932Z,99215.00
2023-04-26T23:02:24.646Z,99209.91
2023-04-26T23:04:51.525Z,99207.44
2023-04-26T23:07:18.254Z,99217.16
2023-04-26T23:09:45.121Z,99212.09
2023-04-26T23:12:11.886Z,99213.03
2023-04-26T23:14:38.552Z,99215.72
2023-04-26T23:17:05.744Z,99222.72
2023-04-26T23:19:33.217Z,99224.59
2023-04-26T23:22:00.243Z,99228.16
2023-04-26T23:24:27.052Z,99223.91
2023-04-26T23:26:54.055Z,99228.31
2023-04-26T23:29:20.767Z,99226.59
2023-04-26T23:31:47.532Z,99231.00
2023-04-26T23:34:14.293Z,99223.19
2023-04-26T23:36:41.283Z,99229.28
2023-04-26T23:39:09.317Z,99228.31
2023-04-26T23:41:36.075Z,99231.84
2023-04-26T23:44:02.793Z,99230.16
2023-04-26T23:46:29.628Z,99235.56
2023-04-26T23:48:56.334Z,99228.56
2023-04-26T23:51:23.012Z,99230.31
2023-04-26T23:53:49.658Z,99224.22
2023-04-26T23:56:16.372Z,99226.06
2023-04-26T23:58:43.000Z,99227.78
